Time;durP1;ratioP1;P1;durP2;ratioP2;P2;SDS_P1;SDS_P2;PMS_P1;PMS_P2;Temp;Humidity;BMP_temperature;BMP_pressure;BME280_temperature;BME280_humidity;BME280_pressure;Samples;Min_cycle;Max_cycle;Signal;HPM_P1;HPM_P2
2023/03/17 00:01:19;;;;;;;7.18;4.05;;;;;;;11.27;49.39;96278.84;5044935;28;20765;-49
2023/03/17 00:03:49;;;;;;;8.85;3.75;;;;;;;11.23;49.72;96274.84;5039399;28;20103;-52
2023/03/17 00:06:23;;;;;;;7.93;4.10;;;;;;;11.22;49.42;96268.75;5043312;28;20099;-49
2023/03/17 00:08:52;;;;;;;5.47;3.75;;;;;;;11.12;49.88;96265.38;5044937;28;20080;-54
2023/03/17 00:11:22;;;;;;;7.88;4.15;;;;;;;11.12;49.77;96268.84;5045523;28;20072;-50
2023/03/17 00:13:50;;;;;;;6.10;3.85;;;;;;;11.09;49.97;96268.31;5046770;28;20065;-49
2023/03/17 00:16:20;;;;;;;7.07;4.00;;;;;;;11.04;49.95;96263.47;5044395;28;20081;-50
2023/03/17 00:18:49;;;;;;;6.32;3.55;;;;;;;11.03;50.04;96271.56;5039860;28;20068;-48
2023/03/17 00:21:22;;;;;;;6.55;3.72;;;;;;;10.98;50.30;96266.75;5042105;28;20095;-49
2023/03/17 00:23:51;;;;;;;5.45;3.25;;;;;;;10.86;50.38;96262.66;5055993;28;20517;-52
2023/03/17 00:26:22;;;;;;;6.22;3.85;;;;;;;10.87;50.49;96264.31;5045041;28;20072;-53
2023/03/17 00:28:50;;;;;;;5.85;3.78;;;;;;;10.85;50.70;96261.84;5043715;28;20419;-52
2023/03/17 00:31:22;;;;;;;6.18;3.30;;;;;;;10.78;50.39;96247.59;5044284;28;20116;-52
2023/03/17 00:33:52;;;;;;;5.15;3.17;;;;;;;10.80;50.67;96248.25;5045319;28;20400;-45
2023/03/17 00:36:22;;;;;;;6.75;3.72;;;;;;;10.74;51.00;96248.06;5045479;28;20092;-47
2023/03/17 00:38:51;;;;;;;6.05;3.15;;;;;;;10.60;51.27;96244.13;5044834;28;20076;-44
2023/03/17 00:41:21;;;;;;;5.95;3.70;;;;;;;10.73;50.99;96249.84;5046886;28;20515;-48
2023/03/17 00:43:50;;;;;;;6.18;3.47;;;;;;;10.71;51.20;96243.91;5046221;28;20069;-50
2023/03/17 00:46:22;;;;;;;7.60;3.67;;;;;;;10.70;51.00;96239.59;5046908;28;20114;-54
2023/03/17 00:48:50;;;;;;;6.82;3.70;;;;;;;10.67;50.89;96235.47;5045003;28;20072;-50
2023/03/17 00:51:18;;;;;;;7.65;3.20;;;;;;;10.65;50.82;96242.69;5042509;28;20069;-47
2023/03/17 00:53:47;;;;;;;5.45;3.50;;;;;;;10.64;51.12;96245.50;5042021;28;20087;-51
2023/03/17 00:56:17;;;;;;;8.02;3.70;;;;;;;10.59;51.24;96232.75;5043682;28;20080;-44
2023/03/17 00:58:48;;;;;;;5.70;3.35;;;;;;;10.54;51.46;96227.09;5045454;28;20107;-47
2023/03/17 01:01:17;;;;;;;5.93;3.35;;;;;;;10.51;51.57;96227.41;5044600;28;20526;-50
2023/03/17 01:03:45;;;;;;;5.80;3.25;;;;;;;10.51;51.01;96223.94;5043908;28;20091;-55
2023/03/17 01:06:15;;;;;;;6.45;3.70;;;;;;;10.49;51.56;96225.88;5039409;28;20061;-46
2023/03/17 01:08:44;;;;;;;7.20;3.80;;;;;;;10.43;51.55;96214.16;5044076;28;21419;-51
2023/03/17 01:11:17;;;;;;;6.97;3.45;;;;;;;10.46;51.76;96208.59;5039245;28;20068;-47
2023/03/17 01:13:47;;;;;;;6.90;3.58;;;;;;;10.38;51.49;96211.94;5045949;28;20104;-50
2023/03/17 01:16:15;;;;;;;8.68;3.97;;;;;;;10.39;51.42;96210.97;5043735;28;20076;-47
2023/03/17 01:18:44;;;;;;;5.95;3.60;;;;;;;10.39;51.44;96205.72;5042752;28;20071;-47
2023/03/17 01:21:12;;;;;;;5.47;3.08;;;;;;;10.32;51.62;96206.44;5047326;28;20529;-45
2023/03/17 01:23:42;;;;;;;7.72;3.65;;;;;;;10.36;51.35;96200.72;5041041;28;20068;-47
2023/03/17 01:26:11;;;;;;;4.70;3.10;;;;;;;10.36;51.55;96198.09;5044733;28;20072;-47
2023/03/17 01:28:39;;;;;;;4.78;3.38;;;;;;;10.33;51.67;96192.28;5042429;28;20072;-51
2023/03/17 01:31:09;;;;;;;7.10;3.67;;;;;;;10.26;51.87;96193.88;5044737;28;20091;-51
2023/03/17 01:33:37;;;;;;;8.02;3.60;;;;;;;10.15;51.99;96194.84;5043496;28;20475;-50
2023/03/17 01:36:07;;;;;;;4.88;2.63;;;;;;;10.09;52.16;96180.50;5047158;28;20118;-46
2023/03/17 01:38:35;;;;;;;7.72;3.17;;;;;;;10.15;51.96;96179.91;5043110;28;20072;-48
2023/03/17 01:41:03;;;;;;;6.47;3.53;;;;;;;10.13;52.29;96187.13;5043214;28;20076;-47
2023/03/17 01:43:32;;;;;;;6.07;3.40;;;;;;;10.17;51.87;96177.94;5043585;28;20455;-53
2023/03/17 01:46:28;;;;;;;7.38;3.90;;;;;;;10.15;51.89;96179.91;5043676;28;20076;-45
2023/03/17 01:49:22;;;;;;;8.05;3.20;;;;;;;10.11;52.00;96170.63;5042037;28;20076;-48
2023/03/17 01:51:55;;;;;;;3.95;2.78;;;;;;;9.99;52.53;96163.91;5042003;28;20065;-50
2023/03/17 01:54:27;;;;;;;4.72;3.00;;;;;;;10.05;52.29;96160.69;5044151;28;20092;-50
2023/03/17 01:56:57;;;;;;;6.13;3.22;;;;;;;10.08;51.70;96155.13;5041452;28;20068;-52
2023/03/17 01:59:28;;;;;;;6.80;3.40;;;;;;;10.03;51.78;96154.72;5044740;28;20138;-50
2023/03/17 02:02:01;;;;;;;5.28;2.90;;;;;;;10.01;51.68;96154.03;5042375;28;20080;-48
2023/03/17 02:04:31;;;;;;;6.00;3.25;;;;;;;10.04;51.79;96160.81;5042568;28;20075;-46
2023/03/17 02:06:59;;;;;;;7.27;3.23;;;;;;;10.01;51.97;96151.41;5041501;28;20076;-50
2023/03/17 02:09:28;;;;;;;6.00;3.22;;;;;;;10.04;51.38;96153.75;5045426;28;20514;-47
2023/03/17 02:12:00;;;;;;;5.40;3.25;;;;;;;10.00;51.41;96149.75;5044418;28;20053;-47
2023/03/17 02:14:28;;;;;;;7.43;3.22;;;;;;;10.01;51.39;96150.59;5042791;28;20533;-50
2023/03/17 02:16:58;;;;;;;7.40;3.33;;;;;;;9.97;51.57;96157.94;5042908;28;20088;-51
2023/03/17 02:19:27;;;;;;;5.97;3.43;;;;;;;9.99;51.86;96141.03;5043280;28;20079;-47
2023/03/17 02:21:57;;;;;;;6.40;3.50;;;;;;;9.94;51.87;96137.19;5043347;28;20498;-49
2023/03/17 02:24:28;;;;;;;;;;;;;;;9.95;51.79;96128.31;5047542;28;20068;-46
2023/03/17 02:26:59;;;;;;;5.07;3.03;;;;;;;9.84;51.99;96124.09;5046875;28;20394;-56
2023/03/17 02:29:28;;;;;;;9.38;3.33;;;;;;;9.87;51.82;96120.31;5043798;28;20071;-45
2023/03/17 02:31:56;;;;;;;9.90;3.72;;;;;;;9.80;51.79;96121.88;5047519;28;20072;-48
2023/03/17 02:34:24;;;;;;;2.95;1.50;;;;;;;9.31;53.75;96135.28;5048517;28;20092;-49
2023/03/17 02:36:52;;;;;;;8.93;3.13;;;;;;;9.59;52.81;96130.03;5045081;28;20079;-50
2023/03/17 02:39:22;;;;;;;5.20;2.97;;;;;;;9.66;52.84;96126.66;5046257;28;20076;-52
2023/03/17 02:41:51;;;;;;;6.18;3.17;;;;;;;9.70;52.50;96127.19;5045382;28;20076;-52
2023/03/17 02:44:20;;;;;;;5.43;2.88;;;;;;;9.67;52.56;96127.50;5047464;28;20131;-49
2023/03/17 02:46:48;;;;;;;4.60;3.17;;;;;;;9.71;52.22;96120.97;5047781;28;20533;-45
2023/03/17 02:49:17;;;;;;;8.63;3.33;;;;;;;9.68;52.53;96118.63;5047065;28;20087;-46
2023/03/17 02:51:46;;;;;;;5.28;3.33;;;;;;;9.57;52.33;96116.22;5046435;28;20088;-51
2023/03/17 02:54:14;;;;;;;8.35;3.38;;;;;;;9.64;52.18;96109.38;5046539;28;20085;-50
2023/03/17 02:56:44;;;;;;;6.32;3.20;;;;;;;9.56;52.69;96106.63;5048000;28;20072;-47
2023/03/17 02:59:13;;;;;;;6.70;3.08;;;;;;;9.51;52.60;96112.34;5044818;28;20076;-45
2023/03/17 03:01:41;;;;;;;5.38;3.10;;;;;;;9.52;52.31;96111.38;5048264;28;20072;-48
2023/03/17 03:04:10;;;;;;;6.20;3.28;;;;;;;9.51;52.21;96107.09;5045489;28;20080;-51
2023/03/17 03:06:41;;;;;;;6.82;3.30;;;;;;;9.51;52.71;96107.09;5044876;28;20333;-48
2023/03/17 03:09:10;;;;;;;6.95;2.90;;;;;;;9.52;52.19;96101.66;5042335;28;20522;-53
2023/03/17 03:11:39;;;;;;;8.10;3.50;;;;;;;9.55;51.71;96097.91;5045405;28;20537;-49
2023/03/17 03:14:09;;;;;;;8.90;3.45;;;;;;;9.42;52.05;96090.34;5047439;28;20073;-50
2023/03/17 03:16:37;;;;;;;9.13;3.37;;;;;;;9.37;52.74;96100.50;5046631;28;20081;-47
2023/03/17 03:19:06;;;;;;;7.78;3.30;;;;;;;9.47;52.09;96100.47;5043918;28;20529;-45
2023/03/17 03:21:35;;;;;;;7.63;3.45;;;;;;;9.55;51.57;96097.09;5046342;28;20771;-46
2023/03/17 03:24:04;;;;;;;6.70;2.97;;;;;;;9.28;51.89;96093.47;5045062;28;20076;-51
2023/03/17 03:26:32;;;;;;;5.68;3.30;;;;;;;9.46;51.75;96097.00;5041147;28;21116;-48
2023/03/17 03:29:01;;;;;;;5.57;3.42;;;;;;;9.52;51.94;96096.41;5047190;28;20064;-49
2023/03/17 03:31:30;;;;;;;6.35;3.08;;;;;;;9.52;51.79;96095.56;5047020;28;20088;-52
2023/03/17 03:33:59;;;;;;;6.82;3.33;;;;;;;9.42;52.02;96098.25;5044981;28;20084;-49
2023/03/17 03:36:28;;;;;;;7.20;3.50;;;;;;;9.53;51.96;96099.84;5043785;28;20084;-51
2023/03/17 03:38:56;;;;;;;9.25;3.72;;;;;;;9.60;51.32;96103.59;5047712;28;20075;-50
2023/03/17 03:41:25;;;;;;;6.43;3.30;;;;;;;9.55;51.33;96108.44;5047083;28;20107;-47
2023/03/17 03:43:53;;;;;;;6.88;3.22;;;;;;;9.59;51.40;96107.16;5045890;28;20095;-48
2023/03/17 03:46:21;;;;;;;5.30;3.28;;;;;;;9.66;51.40;96110.03;5044048;28;20104;-50
2023/03/17 03:48:51;;;;;;;8.95;3.88;;;;;;;9.55;51.31;96112.88;5045431;28;20057;-55
2023/03/17 03:51:19;;;;;;;6.73;3.53;;;;;;;9.59;51.39;96111.63;5046571;28;20088;-50
2023/03/17 03:53:48;;;;;;;6.95;3.50;;;;;;;9.56;51.36;96112.72;5045298;28;20092;-52
2023/03/17 03:56:16;;;;;;;5.88;3.50;;;;;;;9.58;51.62;96109.97;5048027;28;20080;-49
2023/03/17 03:58:44;;;;;;;3.95;2.28;;;;;;;9.52;51.90;96106.94;5044832;28;20072;-50
2023/03/17 04:01:13;;;;;;;5.22;3.15;;;;;;;9.61;51.85;96105.22;5043910;28;20088;-48
2023/03/17 04:03:41;;;;;;;7.78;3.95;;;;;;;9.56;52.04;96104.00;5044126;28;20064;-48
2023/03/17 04:06:11;;;;;;;5.57;3.30;;;;;;;9.51;51.88;96091.28;5043895;28;20068;-51
2023/03/17 04:08:39;;;;;;;6.18;3.63;;;;;;;9.52;52.25;96099.03;5039529;28;20089;-52
2023/03/17 04:11:08;;;;;;;3.42;2.58;;;;;;;9.47;52.06;96088.13;5044533;28;20081;-56
2023/03/17 04:13:37;;;;;;;7.60;3.47;;;;;;;9.45;52.13;96094.50;5040709;28;20829;-47
2023/03/17 04:16:06;;;;;;;5.60;3.00;;;;;;;9.50;52.19;96079.13;5042761;28;20072;-47
2023/03/17 04:18:35;;;;;;;5.38;3.10;;;;;;;9.52;51.66;96090.31;5040987;28;20084;-50
2023/03/17 04:21:03;;;;;;;9.63;3.80;;;;;;;9.64;51.19;96083.88;5044064;28;20557;-51
2023/03/17 04:23:33;;;;;;;6.43;3.53;;;;;;;9.59;51.69;96090.56;5040890;28;20076;-47
2023/03/17 04:26:02;;;;;;;2.97;2.10;;;;;;;9.60;51.13;96086.94;5043641;28;20060;-46
2023/03/17 04:28:31;;;;;;;9.13;3.23;;;;;;;9.70;50.89;96088.56;5044888;28;20076;-45
2023/03/17 04:30:59;;;;;;;5.85;3.08;;;;;;;9.67;51.00;96093.25;5042178;28;20872;-48
2023/03/17 04:33:27;;;;;;;8.05;3.45;;;;;;;9.74;50.94;96089.91;5043528;28;20083;-54
2023/03/17 04:35:57;;;;;;;5.95;2.83;;;;;;;9.52;50.67;96092.94;5043758;28;20076;-53
2023/03/17 04:38:25;;;;;;;8.88;3.03;;;;;;;9.50;51.12;96093.09;5041376;28;20076;-52
2023/03/17 04:40:55;;;;;;;5.30;3.25;;;;;;;9.57;51.06;96097.78;5044799;28;20081;-47
2023/03/17 04:43:23;;;;;;;4.60;2.58;;;;;;;9.48;51.41;96100.31;5041899;28;20084;-50
2023/03/17 04:45:52;;;;;;;5.18;3.00;;;;;;;9.66;51.13;96099.50;5041055;28;20067;-47
2023/03/17 04:48:20;;;;;;;6.20;3.47;;;;;;;9.56;51.19;96101.38;5040920;28;20069;-46
2023/03/17 04:50:48;;;;;;;5.32;2.90;;;;;;;9.60;50.91;96100.09;5039633;28;20467;-48
2023/03/17 04:53:17;;;;;;;5.68;3.28;;;;;;;9.49;51.62;96096.69;5039452;28;20075;-54
2023/03/17 04:55:45;;;;;;;9.95;3.28;;;;;;;9.60;51.21;96100.94;5041916;28;20076;-53
2023/03/17 04:58:15;;;;;;;5.07;3.20;;;;;;;9.51;51.61;96097.38;5069968;28;20087;-51
2023/03/17 05:00:57;;;;;;;5.70;2.80;;;;;;;9.43;51.43;96104.38;5035702;28;20083;-50
2023/03/17 05:03:26;;;;;;;5.63;3.13;;;;;;;9.39;51.51;96098.53;5037326;28;20554;-45
2023/03/17 05:05:56;;;;;;;5.47;2.97;;;;;;;9.39;51.75;96087.19;5042033;28;20083;-50
2023/03/17 05:08:25;;;;;;;6.25;3.30;;;;;;;9.39;51.71;96090.66;5042177;28;20102;-52
2023/03/17 05:10:53;;;;;;;6.03;3.10;;;;;;;9.20;52.26;96081.06;5042057;28;20079;-48
2023/03/17 05:13:23;;;;;;;6.32;3.20;;;;;;;9.18;52.48;96083.00;5041224;28;20092;-45
2023/03/17 05:15:54;;;;;;;7.03;2.90;;;;;;;9.07;53.12;96085.81;5043031;28;20495;-52
2023/03/17 05:18:23;;;;;;;8.07;3.53;;;;;;;8.93;52.95;96088.91;5044941;28;20076;-52
2023/03/17 05:20:52;;;;;;;6.50;3.65;;;;;;;9.17;52.73;96081.34;5042379;28;20088;-50
2023/03/17 05:23:21;;;;;;;7.35;3.53;;;;;;;9.18;52.75;96079.53;5041744;28;20483;-53
2023/03/17 05:25:49;;;;;;;4.60;2.60;;;;;;;8.95;52.88;96084.34;5043639;28;20084;-47
2023/03/17 05:28:18;;;;;;;7.10;3.47;;;;;;;9.10;52.84;96077.63;5047366;28;20076;-50
2023/03/17 05:30:48;;;;;;;6.28;3.17;;;;;;;9.22;52.47;96081.75;5044016;28;20535;-51
2023/03/17 05:33:17;;;;;;;9.10;4.07;;;;;;;9.32;52.32;96091.38;5044742;28;20081;-47
2023/03/17 05:35:45;;;;;;;8.90;3.03;;;;;;;9.35;51.94;96089.28;5040892;28;20088;-52
2023/03/17 05:38:14;;;;;;;7.28;3.40;;;;;;;9.49;51.73;96091.44;5044122;28;20077;-46
2023/03/17 05:40:43;;;;;;;8.30;3.10;;;;;;;9.54;51.42;96096.28;5044121;28;20075;-49
2023/03/17 05:43:11;;;;;;;4.57;2.97;;;;;;;9.58;51.26;96081.84;5040268;28;20085;-52
2023/03/17 05:45:40;;;;;;;6.95;2.85;;;;;;;9.62;51.27;96080.56;5036034;28;20080;-51
2023/03/17 05:48:11;;;;;;;9.38;4.25;;;;;;;9.79;50.77;96076.28;5036584;28;20084;-55
2023/03/17 05:50:40;;;;;;;6.28;3.50;;;;;;;9.87;50.46;96076.38;5037776;28;20095;-47
2023/03/17 05:53:09;;;;;;;8.40;3.70;;;;;;;9.99;50.48;96069.09;5039391;28;20511;-44
2023/03/17 05:55:37;;;;;;;6.75;3.20;;;;;;;10.16;49.69;96076.16;5040583;28;20319;-48
2023/03/17 05:58:06;;;;;;;11.90;3.70;;;;;;;10.33;49.05;96068.44;5041100;28;20089;-50
2023/03/17 06:00:35;;;;;;;8.68;3.90;;;;;;;10.48;49.20;96073.97;5045453;28;20084;-52
2023/03/17 06:03:03;;;;;;;8.63;3.53;;;;;;;10.65;48.68;96068.66;5042614;28;20076;-44
2023/03/17 06:05:34;;;;;;;6.15;3.15;;;;;;;10.73;48.29;96069.69;5045764;28;20088;-55
2023/03/17 06:08:03;;;;;;;7.22;3.20;;;;;;;10.77;47.97;96078.94;5042819;28;20092;-47
2023/03/17 06:10:32;;;;;;;5.95;3.08;;;;;;;10.83;47.91;96075.69;5045887;28;20099;-45
2023/03/17 06:13:01;;;;;;;8.93;3.65;;;;;;;10.77;47.73;96077.16;5045276;28;20560;-53
2023/03/17 06:15:32;;;;;;;6.85;3.53;;;;;;;11.03;47.57;96069.22;5046575;28;20091;-48
2023/03/17 06:18:01;;;;;;;7.80;3.70;;;;;;;11.01;47.57;96067.69;5050982;28;20087;-52
2023/03/17 06:20:30;;;;;;;4.90;3.03;;;;;;;10.98;47.34;96066.22;5045731;28;20081;-56
2023/03/17 06:22:59;;;;;;;6.05;3.40;;;;;;;11.00;47.29;96071.34;5047135;28;20088;-48
2023/03/17 06:25:33;;;;;;;9.85;4.00;;;;;;;10.90;47.50;96071.44;5042029;28;20083;-48
2023/03/17 06:28:02;;;;;;;4.95;3.40;;;;;;;10.88;47.27;96076.88;5046772;28;21060;-53
2023/03/17 06:30:31;;;;;;;6.07;3.05;;;;;;;10.98;47.07;96078.56;5045443;28;20123;-48
2023/03/17 06:33:00;;;;;;;5.43;3.50;;;;;;;10.97;47.57;96072.47;5045092;28;20557;-51
2023/03/17 06:35:28;;;;;;;8.45;3.70;;;;;;;11.07;46.99;96073.19;5047652;28;20073;-50
2023/03/17 06:37:59;;;;;;;10.88;4.00;;;;;;;11.02;47.03;96070.19;5041471;28;20984;-49
2023/03/17 06:40:29;;;;;;;5.65;3.50;;;;;;;11.10;46.80;96058.84;5048423;28;20081;-50
2023/03/17 06:42:58;;;;;;;8.70;3.67;;;;;;;10.90;47.06;96055.59;5044553;28;20079;-49
2023/03/17 06:45:26;;;;;;;6.25;3.70;;;;;;;11.20;46.79;96064.00;5041519;28;20084;-45
2023/03/17 06:47:55;;;;;;;8.48;3.88;;;;;;;11.07;46.91;96077.63;5045245;28;20704;-45
2023/03/17 06:50:23;;;;;;;5.80;3.75;;;;;;;11.28;46.86;96075.41;5046219;28;20080;-46
2023/03/17 06:52:51;;;;;;;5.55;3.40;;;;;;;11.30;46.98;96073.47;5041565;28;20076;-46
2023/03/17 06:55:21;;;;;;;6.13;3.85;;;;;;;11.45;46.93;96071.03;5045513;28;20081;-49
2023/03/17 06:57:49;;;;;;;2.70;1.90;;;;;;;10.93;47.09;96077.22;5040815;28;20076;-50
2023/03/17 07:00:19;;;;;;;8.38;3.85;;;;;;;11.33;46.98;96061.78;5045963;28;20092;-45
2023/03/17 07:02:48;;;;;;;9.97;3.70;;;;;;;11.39;47.11;96063.78;5046439;28;20076;-47
2023/03/17 07:05:16;;;;;;;5.05;3.08;;;;;;;11.60;46.68;96066.00;5044910;28;20192;-45
2023/03/17 07:07:45;;;;;;;5.53;3.65;;;;;;;11.52;46.51;96056.22;5046981;28;20087;-46
2023/03/17 07:10:14;;;;;;;4.93;3.05;;;;;;;11.72;46.83;96061.22;5043202;28;20091;-52
2023/03/17 07:12:44;;;;;;;5.15;3.22;;;;;;;11.65;46.52;96064.50;5045190;28;20096;-50
2023/03/17 07:15:12;;;;;;;11.30;3.63;;;;;;;11.66;46.53;96065.31;5046572;28;20096;-47
2023/03/17 07:17:41;;;;;;;7.05;3.15;;;;;;;11.59;46.35;96065.13;5049352;28;20084;-48
2023/03/17 07:20:10;;;;;;;9.13;3.13;;;;;;;11.68;46.62;96070.47;5046715;28;20080;-49
2023/03/17 07:22:39;;;;;;;6.43;2.75;;;;;;;11.69;46.06;96066.81;5047171;28;20080;-48
2023/03/17 07:25:08;;;;;;;9.18;3.95;;;;;;;11.69;46.83;96059.72;5046555;28;20471;-47
2023/03/17 07:27:36;;;;;;;8.55;4.10;;;;;;;11.92;46.42;96056.50;5043149;28;20085;-50
2023/03/17 07:30:08;;;;;;;4.07;2.58;;;;;;;12.19;46.21;96060.69;5046589;28;20077;-50
2023/03/17 07:32:36;;;;;;;6.38;3.33;;;;;;;12.02;46.13;96062.47;5042860;28;20077;-50
2023/03/17 07:35:06;;;;;;;6.43;3.90;;;;;;;12.31;45.51;96062.81;5044859;28;20088;-48
2023/03/17 07:37:34;;;;;;;9.05;3.97;;;;;;;12.29;46.08;96066.63;5041694;28;20084;-51
2023/03/17 07:40:03;;;;;;;7.55;3.80;;;;;;;12.23;46.04;96067.28;5048121;28;20352;-53
2023/03/17 07:42:32;;;;;;;7.70;3.45;;;;;;;12.29;46.09;96067.44;5046672;28;20135;-46
2023/03/17 07:45:01;;;;;;;8.45;2.97;;;;;;;12.55;46.05;96067.28;5044778;28;20085;-51
2023/03/17 07:47:30;;;;;;;5.68;3.25;;;;;;;12.73;46.43;96069.75;5043873;28;20085;-53
2023/03/17 07:49:58;;;;;;;6.78;4.03;;;;;;;12.97;45.67;96060.94;5047066;28;20080;-51
2023/03/17 07:52:27;;;;;;;5.50;3.47;;;;;;;12.89;44.97;96071.53;5044980;28;20554;-52
2023/03/17 07:54:57;;;;;;;6.18;3.38;;;;;;;13.36;44.51;96062.00;5046356;28;20076;-51
2023/03/17 07:57:25;;;;;;;6.90;3.80;;;;;;;13.52;44.45;96067.22;5043130;28;20336;-51
2023/03/17 07:59:54;;;;;;;6.80;3.85;;;;;;;13.77;44.35;96062.63;5046909;28;20085;-52
2023/03/17 08:02:23;;;;;;;4.43;2.33;;;;;;;13.65;44.66;96070.13;5045891;28;20088;-44
2023/03/17 08:04:53;;;;;;;6.45;3.30;;;;;;;13.47;44.25;96058.97;5045642;28;20641;-50
2023/03/17 08:07:21;;;;;;;9.32;2.92;;;;;;;13.80;43.84;96066.75;5047377;28;20596;-44
2023/03/17 08:09:50;;;;;;;7.88;3.30;;;;;;;13.86;43.80;96056.28;5044758;28;20092;-52
2023/03/17 08:12:18;;;;;;;6.60;3.63;;;;;;;13.80;43.62;96051.69;5043847;28;20080;-50
2023/03/17 08:14:47;;;;;;;6.07;2.45;;;;;;;13.77;43.53;96060.00;5043278;28;20076;-48
2023/03/17 08:17:15;;;;;;;5.03;2.38;;;;;;;13.83;43.41;96067.22;5039990;28;20087;-49
2023/03/17 08:19:44;;;;;;;5.78;3.30;;;;;;;13.98;44.16;96054.06;5044650;28;20092;-45
2023/03/17 08:22:13;;;;;;;8.13;2.50;;;;;;;14.39;43.28;96051.13;5046017;28;20085;-52
2023/03/17 08:24:42;;;;;;;5.40;2.93;;;;;;;14.30;42.70;96055.66;5046148;28;20111;-45
2023/03/17 08:27:10;;;;;;;5.03;3.30;;;;;;;14.76;42.11;96050.31;5045634;28;20506;-47
2023/03/17 08:29:39;;;;;;;4.45;3.03;;;;;;;14.77;41.94;96054.63;5043827;28;20087;-50
2023/03/17 08:32:08;;;;;;;5.93;3.00;;;;;;;14.53;42.54;96058.31;5039723;28;20077;-48
2023/03/17 08:34:36;;;;;;;6.82;3.55;;;;;;;14.90;42.34;96044.22;5048591;28;20542;-46
2023/03/17 08:37:05;;;;;;;5.50;3.28;;;;;;;15.08;41.26;96048.34;5048592;28;20092;-46
2023/03/17 08:39:36;;;;;;;5.22;3.20;;;;;;;14.98;41.25;96040.63;5040333;28;20095;-48
2023/03/17 08:42:04;;;;;;;5.07;3.17;;;;;;;15.05;40.84;96035.44;5044931;28;20087;-48
2023/03/17 08:44:33;;;;;;;5.63;3.53;;;;;;;15.63;40.46;96031.06;5045079;28;20529;-44
2023/03/17 08:47:02;;;;;;;6.60;3.33;;;;;;;15.72;40.10;96032.63;5046170;28;20143;-47
2023/03/17 08:49:33;;;;;;;6.78;3.03;;;;;;;15.43;40.13;96034.28;5044415;28;20073;-46
2023/03/17 08:52:02;;;;;;;6.40;3.10;;;;;;;15.77;40.43;96032.91;5042887;28;20532;-47
2023/03/17 08:54:30;;;;;;;8.35;3.47;;;;;;;15.98;40.33;96036.59;5041533;28;20081;-47
2023/03/17 08:57:00;;;;;;;5.20;3.30;;;;;;;16.27;40.64;96038.31;5042338;28;20084;-51
2023/03/17 08:59:29;;;;;;;5.20;2.97;;;;;;;16.12;39.94;96039.19;5044722;28;20080;-49
2023/03/17 09:01:57;;;;;;;5.93;3.20;;;;;;;16.64;39.30;96047.03;5042755;28;20081;-50
2023/03/17 09:04:26;;;;;;;5.63;3.38;;;;;;;16.97;39.53;96037.47;5042238;28;20083;-56
2023/03/17 09:06:55;;;;;;;6.70;3.25;;;;;;;16.91;39.23;96043.56;5042457;28;20088;-48
2023/03/17 09:09:31;;;;;;;8.07;3.22;;;;;;;17.07;40.19;96037.97;5041684;28;20084;-56
2023/03/17 09:12:01;;;;;;;7.07;3.30;;;;;;;17.35;40.05;96044.28;5046471;28;20079;-49
2023/03/17 09:14:29;;;;;;;11.63;5.45;;;;;;;17.35;39.50;96047.75;5042186;28;20141;-49
2023/03/17 09:17:10;;;;;;;5.53;2.92;;;;;;;17.41;38.69;96052.31;5045003;28;20084;-48
2023/03/17 09:19:39;;;;;;;6.03;2.95;;;;;;;17.90;38.65;96048.63;5043807;28;20080;-47
2023/03/17 09:22:07;;;;;;;4.78;2.80;;;;;;;17.95;37.86;96045.34;5039837;28;20081;-52
2023/03/17 09:24:36;;;;;;;7.38;3.10;;;;;;;17.86;37.83;96043.88;5044485;28;20085;-51
2023/03/17 09:27:06;;;;;;;4.60;3.08;;;;;;;17.83;38.23;96038.97;5045758;28;20090;-49
2023/03/17 09:29:34;;;;;;;4.70;3.17;;;;;;;18.25;37.65;96029.81;5043459;28;20096;-51
2023/03/17 09:32:02;;;;;;;6.32;3.28;;;;;;;18.46;37.48;96016.28;5043122;28;20076;-48
2023/03/17 09:34:31;;;;;;;4.82;3.08;;;;;;;18.81;36.34;96020.63;5042414;28;20096;-49
2023/03/17 09:36:59;;;;;;;6.10;2.85;;;;;;;18.89;37.31;96010.56;5039967;28;20495;-47
2023/03/17 09:39:28;;;;;;;5.50;2.95;;;;;;;18.98;36.28;96013.81;5045607;28;20084;-50
2023/03/17 09:42:02;;;;;;;4.20;3.05;;;;;;;19.15;36.22;96003.50;5041866;28;20888;-50
2023/03/17 09:44:40;;;;;;;5.32;3.30;;;;;;;19.13;36.18;96001.06;5039367;28;20487;-52
2023/03/17 09:47:24;;;;;;;16.52;8.15;;;;;;;19.36;35.92;96007.75;5044603;28;20084;-45
2023/03/17 09:49:55;;;;;;;5.10;3.03;;;;;;;19.16;35.94;96005.13;5038673;28;20093;-45
2023/03/17 09:52:27;;;;;;;3.78;2.90;;;;;;;19.89;35.58;95987.00;5044281;28;20119;-47
2023/03/17 09:54:55;;;;;;;5.55;2.45;;;;;;;19.54;36.00;95986.50;5042770;28;20077;-51
2023/03/17 09:57:29;;;;;;;3.92;2.70;;;;;;;20.05;35.21;95984.84;5042986;28;20076;-51
2023/03/17 10:00:05;;;;;;;4.72;3.00;;;;;;;20.22;35.10;95977.91;5045069;28;20159;-51
2023/03/17 10:02:36;;;;;;;6.50;2.70;;;;;;;20.17;35.09;95974.28;5043255;28;20080;-52
2023/03/17 10:05:13;;;;;;;3.40;2.55;;;;;;;20.02;35.27;95970.00;5038752;28;20089;-50
2023/03/17 10:07:45;;;;;;;4.97;3.00;;;;;;;19.99;35.63;95973.13;5043564;28;20482;-53
2023/03/17 10:10:15;;;;;;;4.13;2.67;;;;;;;20.58;35.10;95963.88;5043343;28;20072;-54
2023/03/17 10:12:48;;;;;;;4.93;3.05;;;;;;;20.49;35.51;95970.50;5046291;28;20084;-52
2023/03/17 10:15:22;;;;;;;5.00;3.17;;;;;;;19.99;36.24;95981.16;5044262;28;20084;-47
2023/03/17 10:17:52;;;;;;;5.72;3.50;;;;;;;20.53;36.43;95979.78;5037173;28;20080;-48
2023/03/17 10:20:24;;;;;;;7.25;3.33;;;;;;;20.93;35.13;95975.94;5040282;28;20076;-49
2023/03/17 10:22:56;;;;;;;5.05;3.08;;;;;;;20.67;34.53;95982.34;5043651;28;20103;-48
2023/03/17 10:25:28;;;;;;;7.35;3.38;;;;;;;20.31;34.85;95973.13;5044883;28;20448;-49
2023/03/17 10:27:59;;;;;;;7.05;3.05;;;;;;;20.27;35.51;95974.59;5044995;28;20086;-46
2023/03/17 10:30:32;;;;;;;5.95;3.15;;;;;;;20.86;35.18;95973.31;5043647;28;20111;-48
2023/03/17 10:33:02;;;;;;;4.97;3.28;;;;;;;21.21;34.06;95975.41;5041463;28;20099;-53
2023/03/17 10:35:34;;;;;;;4.03;3.20;;;;;;;21.06;34.43;95968.56;5041262;28;20080;-48
2023/03/17 10:38:14;;;;;;;5.38;3.17;;;;;;;21.01;34.21;95968.41;5043779;28;20077;-52
2023/03/17 10:40:46;;;;;;;4.80;3.30;;;;;;;20.86;34.64;95958.03;5042528;28;20092;-49
2023/03/17 10:43:20;;;;;;;4.47;3.13;;;;;;;21.54;34.92;95957.09;5044086;28;20557;-46
2023/03/17 10:45:59;;;;;;;6.00;3.13;;;;;;;21.43;34.38;95963.22;5046306;28;20084;-49
2023/03/17 10:48:29;;;;;;;6.05;3.20;;;;;;;21.43;33.84;95960.53;5045431;28;20085;-53
2023/03/17 10:50:58;;;;;;;6.13;3.03;;;;;;;21.59;34.17;95958.28;5045126;28;20091;-47
2023/03/17 10:53:30;;;;;;;4.88;2.97;;;;;;;21.48;34.07;95954.50;5044359;28;20096;-53
2023/03/17 10:55:59;;;;;;;5.38;3.40;;;;;;;21.87;33.84;95965.75;5047395;28;20501;-48
2023/03/17 10:58:38;;;;;;;4.97;3.33;;;;;;;21.39;33.91;95963.91;5047170;28;20096;-53
2023/03/17 11:01:18;;;;;;;8.10;3.25;;;;;;;21.85;33.59;95957.09;5046244;28;20087;-53
2023/03/17 11:03:47;;;;;;;5.15;3.05;;;;;;;21.84;33.48;95955.47;5042832;28;20080;-48
2023/03/17 11:06:17;;;;;;;7.63;3.08;;;;;;;21.69;33.32;95954.00;5048278;28;20076;-46
2023/03/17 11:08:48;;;;;;;4.07;2.90;;;;;;;21.47;33.81;95951.00;5045628;28;20084;-49
2023/03/17 11:11:25;;;;;;;7.22;4.00;;;;;;;21.87;33.45;95952.34;5046279;28;20089;-48
2023/03/17 11:14:01;;;;;;;4.35;2.90;;;;;;;21.36;34.05;95953.59;5042976;28;20655;-51
2023/03/17 11:16:32;;;;;;;14.43;9.77;;;;;;;22.05;33.45;95949.59;5045193;28;20084;-52
2023/03/17 11:19:01;;;;;;;5.55;3.10;;;;;;;22.08;33.72;95935.69;5042780;28;20118;-47
2023/03/17 11:21:31;;;;;;;6.20;3.03;;;;;;;22.18;34.16;95932.50;5046671;28;20084;-49
2023/03/17 11:24:07;;;;;;;4.83;3.30;;;;;;;22.10;33.22;95940.84;5041745;28;20091;-50
2023/03/17 11:26:45;;;;;;;4.85;2.92;;;;;;;22.25;33.52;95925.97;5041559;28;20853;-55
2023/03/17 11:29:22;;;;;;;4.93;3.05;;;;;;;22.80;32.80;95914.06;5046083;28;20479;-50
2023/03/17 11:31:57;;;;;;;7.10;3.65;;;;;;;22.65;32.89;95911.88;5045706;28;20091;-46
2023/03/17 11:34:33;;;;;;;5.65;3.10;;;;;;;22.82;32.62;95911.16;5045607;28;20576;-53
2023/03/17 11:37:05;;;;;;;5.68;3.40;;;;;;;22.89;32.83;95914.53;5038769;28;20081;-47
2023/03/17 11:39:39;;;;;;;4.32;2.92;;;;;;;23.07;32.36;95913.59;5047654;28;20649;-52
2023/03/17 11:42:12;;;;;;;4.15;2.75;;;;;;;22.46;33.08;95913.00;5041724;28;20077;-49
2023/03/17 11:45:14;;;;;;;8.52;4.38;;;;;;;22.43;32.87;95913.47;5046809;28;20065;-51
2023/03/17 11:48:07;;;;;;;8.18;4.90;;;;;;;23.32;32.82;95897.16;5046618;28;20083;-51
2023/03/17 11:50:39;;;;;;;7.40;3.97;;;;;;;23.42;31.95;95900.88;5044785;28;20103;-51